Strona główna
METAR-TAF:

METAR-TAF

Lotnisko :

Port lotniczy Calgary

Calgary, Alberta, Kanada

Szerokość geograficzna: 51-07N, Długość geograficzna: 114-01W, wysokość: 1077 m

Aktualna obserwacja pogody

Raport powstał 18 minut temu, godzina 14:20 UTC
Wiatr 2 kt z kierunków zmiennych
Temperatura 2°C
Wilgotność 47%
Ciśnienie 1002 hPa
Widzialność: 24.1 km
Rozproszone chmury na wysokości 18000 ft
Przerywane chmury na wysokości 23000 ft

METAR: CYYC 141420Z VRB02KT 15SM SCT180 BKN230 02/M08 A2959 RMK AC3CI3 T SLP060

czas: 07:38 (14:38 UTC)

Prognoza

Raport powstał 2 godziny i 59 minut temu, godzina 11:39 UTC
Prognoza ważna od 14 godzina 12 UTC do 15 godzina 12 UTC
Wiatr 6 kt od południowo-południowy zachód
Widzialność: 10 km
Mało chmury na wysokości 12000 ft
Przerywane chmury na wysokości 20000 ft
Stopniowe zmiany
od 14 godzina 17 UTC do 14 godzina 19 UTC
Wiatr 15 kt od południowo-południowy zachód w porywach dochodzący do 25 kt

TAF: CYYC 141139Z 1412/1512 20006KT P6SM FEW120 BKN200 BECMG 1417/1419 20015G25KT RMK NXT FCST BY 141500Z

Obserwacja i prognoza pogody dla ponad 4000 lotnisk (raport METAR i TAF).

Dostępne stacje oznaczono żółtymi i czerwonymi punktami na mapie.

Najedź kursorem aby zobaczyć nazwę stacji.

Kliknij aby zobaczyć obserwacje i prognozy pogody.

Aby zmienić mapę: kliknij na zielony przycisk z czarnym krzyżykiem, aby powiększyć; na zielony przycisk z myślnikiem, aby pomniejszyć; na zielone strzałki, aby przejść do map sąsiednich.


METAR-TAF: